Time;durP1;ratioP1;P1;durP2;ratioP2;P2;SDS_P1;SDS_P2;PMS_P1;PMS_P2;Temp;Humidity;BMP_temperature;BMP_pressure;BME280_temperature;BME280_humidity;BME280_pressure;Samples;Min_cycle;Max_cycle;Signal;HPM_P1;HPM_P2
2021/11/30 00:01:45;;;;;;;6.80;4.43;;;;;;;2.01;100.00;100430.72;6325740;28;20059;-79
2021/11/30 00:04:46;;;;;;;9.35;4.90;;;;;;;2.04;100.00;100430.63;6326272;28;20060;-79
2021/11/30 00:07:51;;;;;;;8.40;4.15;;;;;;;2.06;100.00;100426.28;6326776;28;20048;-79
2021/11/30 00:10:54;;;;;;;7.47;4.57;;;;;;;2.07;100.00;100424.53;6326434;28;20048;-79
2021/11/30 00:13:55;;;;;;;7.55;3.65;;;;;;;2.10;100.00;100417.53;6326475;28;20055;-79
2021/11/30 00:16:58;;;;;;;7.80;2.78;;;;;;;2.16;100.00;100412.19;6326477;28;20047;-79
2021/11/30 00:19:59;;;;;;;7.97;4.00;;;;;;;2.15;100.00;100412.25;6326191;28;20052;-80
2021/11/30 00:23:00;;;;;;;9.77;3.78;;;;;;;2.18;100.00;100412.16;6329908;28;20428;-79
2021/11/30 00:26:03;;;;;;;10.43;4.50;;;;;;;2.17;100.00;100413.03;6329468;27;20503;-79
2021/11/30 00:29:05;;;;;;;11.35;4.78;;;;;;;2.22;100.00;100406.84;6328114;28;20052;-80
2021/11/30 00:32:09;;;;;;;11.52;5.03;;;;;;;2.24;100.00;100406.84;6317512;28;20044;-79
2021/11/30 00:35:10;;;;;;;9.32;5.32;;;;;;;2.25;100.00;100405.94;6300698;28;20048;-79
2021/11/30 00:38:13;;;;;;;8.88;4.32;;;;;;;2.28;100.00;100400.69;6300938;28;20051;-79
2021/11/30 00:41:15;;;;;;;11.48;4.18;;;;;;;2.28;100.00;100390.31;6311610;28;20086;-79
2021/11/30 00:44:20;;;;;;;8.90;4.80;;;;;;;2.31;100.00;100387.63;6324480;28;20052;-79
2021/11/30 00:47:28;;;;;;;5.57;3.83;;;;;;;2.33;100.00;100378.09;6325420;28;20074;-79
2021/11/30 00:50:29;;;;;;;6.53;3.97;;;;;;;2.37;100.00;100379.72;6325002;28;20048;-79
2021/11/30 00:53:31;;;;;;;7.38;4.20;;;;;;;2.41;100.00;100370.13;6325408;28;20044;-79
2021/11/30 00:56:32;;;;;;;10.77;4.05;;;;;;;2.37;100.00;100369.34;6325469;28;20430;-79
2021/11/30 00:59:34;;;;;;;5.38;3.05;;;;;;;2.40;100.00;100387.38;6325120;28;20104;-79
2021/11/30 01:02:36;;;;;;;9.07;4.45;;;;;;;2.44;100.00;100386.41;6323206;28;20082;-80
2021/11/30 01:05:38;;;;;;;10.25;3.92;;;;;;;2.46;100.00;100382.06;6325312;28;20048;-79
2021/11/30 01:08:39;;;;;;;11.63;5.07;;;;;;;2.51;100.00;100369.81;6325142;28;20044;-79
2021/11/30 01:11:40;;;;;;;6.63;3.97;;;;;;;2.50;100.00;100375.91;6324587;28;20048;-79
2021/11/30 01:14:42;;;;;;;8.18;3.65;;;;;;;2.52;100.00;100365.50;6325035;28;20047;-79
2021/11/30 01:17:45;;;;;;;6.78;3.55;;;;;;;2.55;100.00;100355.03;6324642;28;20044;-79
2021/11/30 01:20:46;;;;;;;7.03;4.03;;;;;;;2.60;100.00;100344.53;6325052;28;20044;-79
2021/11/30 01:23:48;;;;;;;6.80;3.83;;;;;;;2.60;100.00;100344.53;6324425;28;20487;-79
2021/11/30 01:26:49;;;;;;;6.47;3.95;;;;;;;2.65;100.00;100334.88;6324430;28;20059;-79
2021/11/30 01:29:50;;;;;;;11.50;3.70;;;;;;;2.60;100.00;100337.59;6323927;28;20044;-79
2021/11/30 01:32:53;;;;;;;6.68;3.47;;;;;;;2.65;100.00;100334.88;6312460;28;20055;-79
2021/11/30 01:35:55;;;;;;;9.90;4.05;;;;;;;2.69;100.00;100324.38;6299475;28;20040;-80
2021/11/30 01:38:59;;;;;;;4.50;3.13;;;;;;;2.74;100.00;100316.47;6299675;28;20052;-78
2021/11/30 01:42:01;;;;;;;6.63;3.10;;;;;;;2.70;100.00;100318.28;6298733;28;20048;-79
2021/11/30 01:45:07;;;;;;;8.18;2.92;;;;;;;2.70;100.00;100307.91;6299297;28;20064;-79
2021/11/30 01:51:30;;;;;;;7.35;3.75;;;;;;;2.61;100.00;100290.00;6298403;28;20566;-79
2021/11/30 01:54:32;;;;;;;9.52;3.50;;;;;;;2.59;100.00;100276.25;6299721;28;20044;-79
2021/11/30 01:57:33;;;;;;;4.15;2.47;;;;;;;2.58;100.00;100265.91;6299240;28;20048;-79
2021/11/30 02:00:37;;;;;;;4.70;2.92;;;;;;;2.56;100.00;100273.75;6298396;28;20049;-79
2021/11/30 02:03:40;;;;;;;3.45;2.63;;;;;;;2.57;100.00;100274.59;6298377;28;20182;-80
2021/11/30 02:06:42;;;;;;;4.75;3.63;;;;;;;2.60;100.00;100261.53;6298685;28;20048;-81
2021/11/30 02:09:44;;;;;;;3.35;2.33;;;;;;;2.63;100.00;100251.91;6298460;28;20048;-80
2021/11/30 02:12:47;;;;;;;5.93;3.15;;;;;;;2.64;100.00;100256.22;6298441;28;20055;-80
2021/11/30 02:15:51;;;;;;;5.25;2.92;;;;;;;2.63;100.00;100246.72;6298610;28;20048;-80
2021/11/30 02:18:55;;;;;;;3.92;2.60;;;;;;;2.64;100.00;100245.84;6299167;28;20044;-79
2021/11/30 02:21:58;;;;;;;4.78;3.03;;;;;;;2.64;100.00;100243.25;6298265;28;20606;-80
2021/11/30 02:25:00;;;;;;;5.53;3.10;;;;;;;2.68;100.00;100242.28;6310026;28;20055;-81
2021/11/30 02:28:01;;;;;;;5.55;3.33;;;;;;;2.65;100.00;100226.78;6312727;28;20650;-80
2021/11/30 02:31:03;;;;;;;5.18;2.92;;;;;;;2.73;100.00;100230.00;6326108;28;20052;-79
2021/11/30 02:34:05;;;;;;;4.30;2.58;;;;;;;2.74;100.00;100230.84;6324598;28;20052;-80
2021/11/30 02:37:11;;;;;;;4.75;2.10;;;;;;;2.73;100.00;100213.59;6322531;28;20058;-81
2021/11/30 02:40:13;;;;;;;3.05;2.20;;;;;;;2.65;100.00;100193.06;6329852;28;20067;-78
2021/11/30 02:43:14;;;;;;;3.05;2.03;;;;;;;2.62;100.00;100169.78;6332358;28;20052;-82
2021/11/30 02:46:33;;;;;;;4.13;2.53;;;;;;;2.59;100.00;100156.06;6322880;28;20431;-80
2021/11/30 02:49:36;;;;;;;2.25;1.83;;;;;;;2.60;100.00;100150.00;6323911;28;20044;-83
2021/11/30 02:52:39;;;;;;;6.35;2.03;;;;;;;2.61;100.00;100149.09;6322030;28;20052;-81
2021/11/30 02:55:40;;;;;;;2.58;1.75;;;;;;;2.55;100.00;100147.56;6303273;28;20052;-82
2021/11/30 02:58:41;;;;;;;4.43;1.48;;;;;;;2.59;100.00;100143.09;6297896;28;20048;-81
2021/11/30 03:01:51;;;;;;;3.00;1.23;;;;;;;2.54;100.00;100133.75;6317089;28;20048;-79
2021/11/30 03:04:53;;;;;;;0.95;0.88;;;;;;;2.50;100.00;100137.31;6323076;28;20055;-78
2021/11/30 03:07:56;;;;;;;0.98;0.80;;;;;;;2.43;100.00;100135.78;6325011;28;20044;-77
2021/11/30 03:10:57;;;;;;;3.55;1.92;;;;;;;2.34;100.00;100123.09;6327606;28;20043;-79
2021/11/30 03:13:59;;;;;;;1.98;1.25;;;;;;;2.33;100.00;100118.81;6327941;28;20051;-80
2021/11/30 03:17:00;;;;;;;1.63;1.52;;;;;;;2.32;100.00;100095.50;6328277;28;20044;-80
2021/11/30 03:20:03;;;;;;;0.85;0.80;;;;;;;2.32;100.00;100098.09;6328187;28;20044;-79
2021/11/30 03:23:06;;;;;;;1.20;1.00;;;;;;;2.28;100.00;100080.06;6323578;28;20525;-78
2021/11/30 03:26:07;;;;;;;1.27;0.80;;;;;;;2.27;100.00;100074.91;6325325;28;20048;-78
2021/11/30 03:29:08;;;;;;;1.42;1.00;;;;;;;2.28;100.00;100063.66;6327682;28;20047;-82
2021/11/30 03:32:12;;;;;;;8.10;1.50;;;;;;;2.23;100.00;100055.19;6327173;28;20044;-83
2021/11/30 03:35:13;;;;;;;2.60;1.60;;;;;;;2.26;100.00;100047.28;6327168;28;20097;-77
2021/11/30 03:38:15;;;;;;;1.20;0.93;;;;;;;2.16;100.00;100045.88;6326670;28;20513;-79
2021/11/30 03:41:17;;;;;;;3.13;1.42;;;;;;;2.15;100.00;100028.63;6326692;28;20411;-80
2021/11/30 03:44:19;;;;;;;2.13;1.00;;;;;;;2.12;100.00;100015.75;6327835;28;20052;-80
2021/11/30 03:47:22;;;;;;;0.88;0.73;;;;;;;2.10;100.00;100021.00;6327294;28;20055;-79
2021/11/30 03:50:23;;;;;;;1.38;1.08;;;;;;;2.09;100.00;99992.53;6327490;28;20048;-80
2021/11/30 03:53:26;;;;;;;1.85;1.33;;;;;;;2.07;100.00;99994.31;6326377;28;20067;-80
2021/11/30 03:56:28;;;;;;;2.10;1.15;;;;;;;2.05;100.00;99976.25;6327646;28;20052;-80
2021/11/30 03:59:29;;;;;;;1.33;1.08;;;;;;;2.00;100.00;99976.38;6327330;28;20052;-79
2021/11/30 04:02:30;;;;;;;3.30;1.67;;;;;;;1.98;100.00;99962.63;6327847;28;20048;-80
2021/11/30 04:05:32;;;;;;;1.80;1.27;;;;;;;1.96;100.00;99956.66;6328621;28;20510;-80
2021/11/30 04:08:38;;;;;;;1.55;1.02;;;;;;;1.96;100.00;99972.19;6321836;28;20053;-81
2021/11/30 04:11:40;;;;;;;1.95;1.55;;;;;;;1.93;100.00;99954.13;6303120;28;20052;-82
2021/11/30 04:14:41;;;;;;;1.00;0.85;;;;;;;1.92;100.00;99939.50;6301296;28;20131;-80
2021/11/30 04:17:43;;;;;;;2.05;1.50;;;;;;;1.92;100.00;99936.06;6301813;28;20048;-78
2021/11/30 04:20:44;;;;;;;2.42;1.48;;;;;;;1.94;100.00;99931.66;6302487;28;20694;-78
2021/11/30 04:23:47;;;;;;;2.60;1.70;;;;;;;1.95;100.00;99920.41;6325054;28;20044;-80
2021/11/30 04:26:48;;;;;;;2.55;1.33;;;;;;;1.93;100.00;99917.03;6336375;28;20059;-79
2021/11/30 04:29:49;;;;;;;3.25;1.48;;;;;;;1.91;100.00;99908.47;6325615;28;20048;-79
2021/11/30 04:32:52;;;;;;;4.57;1.70;;;;;;;1.91;100.00;99901.53;6327516;28;20491;-80
2021/11/30 04:35:53;;;;;;;2.78;2.28;;;;;;;1.91;100.00;99878.22;6327515;28;20059;-80
2021/11/30 04:38:56;;;;;;;4.40;2.25;;;;;;;1.87;100.00;99874.03;6325870;28;20051;-81
2021/11/30 04:41:58;;;;;;;8.13;2.17;;;;;;;1.86;100.00;99858.50;6326902;28;20113;-81
2021/11/30 04:45:04;;;;;;;5.28;2.20;;;;;;;1.89;100.00;99850.66;6326362;28;20048;-79
2021/11/30 04:48:06;;;;;;;2.95;2.00;;;;;;;1.85;100.00;99838.69;6337376;28;20043;-79
2021/11/30 04:51:11;;;;;;;3.20;1.73;;;;;;;1.83;100.00;99824.97;6328713;28;20052;-80
2021/11/30 04:54:13;;;;;;;3.38;2.05;;;;;;;1.84;100.00;99844.78;6316896;28;20131;-80
2021/11/30 04:57:15;;;;;;;2.17;1.98;;;;;;;1.83;100.00;99814.59;6320045;28;20058;-77
2021/11/30 05:00:16;;;;;;;2.58;2.10;;;;;;;1.79;100.00;99803.47;6325837;28;20048;-80
2021/11/30 05:03:19;;;;;;;2.53;2.05;;;;;;;1.80;100.00;99787.03;6326073;28;20071;-82
2021/11/30 05:06:20;;;;;;;3.08;2.08;;;;;;;1.85;100.00;99792.91;6326675;28;20407;-81
2021/11/30 05:09:23;;;;;;;4.80;2.00;;;;;;;1.83;100.00;99773.16;6325908;28;20040;-77
2021/11/30 05:12:24;;;;;;;2.33;1.70;;;;;;;1.85;100.00;99774.78;6326045;28;20048;-82
2021/11/30 05:15:26;;;;;;;2.78;1.90;;;;;;;1.90;100.00;99764.25;6325622;28;20048;-82
2021/11/30 05:18:27;;;;;;;1.85;1.73;;;;;;;1.86;100.00;99780.81;6325410;28;20093;-82
2021/11/30 05:21:28;;;;;;;2.28;1.52;;;;;;;1.90;100.00;99778.06;6324558;28;20457;-83
2021/11/30 05:24:31;;;;;;;3.42;2.38;;;;;;;1.92;100.00;99765.06;6326455;28;20044;-79
2021/11/30 05:27:42;;;;;;;3.03;1.98;;;;;;;1.89;100.00;99760.84;6326265;28;20499;-85
2021/11/30 05:30:43;;;;;;;2.72;2.28;;;;;;;1.92;100.00;99760.75;6325381;28;20169;-80
2021/11/30 05:33:47;;;;;;;2.42;1.77;;;;;;;1.94;100.00;99758.94;6323189;28;20067;-79
2021/11/30 05:36:48;;;;;;;1.58;1.40;;;;;;;1.97;100.00;99774.38;6319853;28;20048;-78
2021/11/30 05:39:51;;;;;;;3.85;2.20;;;;;;;1.99;100.00;99761.34;6316659;28;20040;-84
2021/11/30 05:42:52;;;;;;;2.28;1.83;;;;;;;2.02;100.00;99761.25;6325528;28;20051;-76
2021/11/30 05:45:54;;;;;;;1.63;1.48;;;;;;;2.08;100.00;99755.84;6302255;28;20044;-80
2021/11/30 05:48:56;;;;;;;2.33;2.13;;;;;;;2.15;100.00;99753.91;6306590;28;20053;-79
2021/11/30 05:51:57;;;;;;;2.45;2.08;;;;;;;2.18;100.00;99741.72;6299378;28;20056;-83
2021/11/30 05:55:00;;;;;;;2.97;2.13;;;;;;;2.22;100.00;99735.50;6312412;28;20054;-79
2021/11/30 05:58:01;;;;;;;2.88;1.92;;;;;;;2.25;100.00;99739.72;6324565;28;20044;-78
2021/11/30 06:01:09;;;;;;;1.42;1.33;;;;;;;2.27;100.00;99728.41;6325651;28;20052;-77
2021/11/30 06:04:10;;;;;;;3.38;1.67;;;;;;;2.30;100.00;99724.84;6323933;28;20051;-78
2021/11/30 06:07:11;;;;;;;2.47;1.50;;;;;;;2.35;100.00;99724.69;6324070;28;20402;-78
2021/11/30 06:10:15;;;;;;;3.28;2.10;;;;;;;2.37;100.00;99718.56;6324366;28;20044;-79
2021/11/30 06:13:16;;;;;;;2.65;1.60;;;;;;;2.47;100.00;99722.50;6335346;28;20133;-82
2021/11/30 06:16:18;;;;;;;2.00;1.77;;;;;;;2.54;100.00;99718.78;6349645;28;20048;-83
2021/11/30 06:19:20;;;;;;;1.67;1.50;;;;;;;2.61;100.00;99718.56;6348401;28;20426;-82
2021/11/30 06:22:21;;;;;;;3.05;1.77;;;;;;;2.66;100.00;99714.88;6346648;28;20046;-82
2021/11/30 06:25:24;;;;;;;1.17;1.13;;;;;;;2.63;100.00;99714.16;6321369;28;20044;-78
2021/11/30 06:28:25;;;;;;;1.80;0.98;;;;;;;2.63;100.00;99709.81;6341338;28;20044;-83
2021/11/30 06:31:26;;;;;;;2.92;1.73;;;;;;;2.69;100.00;99706.16;6326029;28;20458;-78
2021/11/30 06:34:28;;;;;;;2.50;1.65;;;;;;;2.76;100.00;99708.44;6320876;28;20048;-80
2021/11/30 06:37:29;;;;;;;3.33;1.52;;;;;;;2.77;100.00;99707.56;6319284;28;20048;-80
2021/11/30 06:40:32;;;;;;;2.20;1.67;;;;;;;2.84;100.00;99681.38;6312714;28;20040;-79
2021/11/30 06:43:34;;;;;;;1.40;1.30;;;;;;;2.84;100.00;99677.03;6327677;28;20048;-82
2021/11/30 06:46:35;;;;;;;2.97;1.75;;;;;;;2.93;100.00;99688.78;6325868;28;20058;-79
2021/11/30 06:49:36;;;;;;;2.00;1.58;;;;;;;2.95;100.00;99674.88;6325193;28;20048;-81
2021/11/30 06:52:39;;;;;;;1.40;1.10;;;;;;;3.02;100.00;99691.03;6330628;28;20067;-83
2021/11/30 06:55:41;;;;;;;2.83;1.63;;;;;;;3.05;100.00;99693.50;6327259;28;20708;-82
2021/11/30 06:58:43;;;;;;;2.53;1.85;;;;;;;3.04;100.00;99694.38;6322442;28;20047;-83
2021/11/30 07:01:44;;;;;;;2.00;1.45;;;;;;;3.14;100.00;99708.72;6323176;28;20051;-79
2021/11/30 07:04:49;;;;;;;1.20;1.10;;;;;;;3.13;100.00;99698.38;6323150;28;20071;-78
2021/11/30 07:08:00;;;;;;;5.55;2.47;;;;;;;3.16;100.00;99698.25;6323263;28;20142;-82
2021/11/30 07:11:07;;;;;;;1.67;1.42;;;;;;;3.24;100.00;99717.81;6323839;28;20558;-79
2021/11/30 07:14:08;;;;;;;1.65;1.27;;;;;;;3.26;100.00;99710.81;6323564;28;20052;-80
2021/11/30 07:17:09;;;;;;;1.75;1.35;;;;;;;3.28;100.00;99698.63;6324092;28;20059;-80
2021/11/30 07:20:11;;;;;;;2.33;1.48;;;;;;;3.38;100.00;99686.09;6324090;28;20384;-78
2021/11/30 07:23:14;;;;;;;2.00;1.48;;;;;;;3.35;100.00;99688.81;6323350;28;20487;-80
2021/11/30 07:26:17;;;;;;;1.42;1.30;;;;;;;3.47;100.00;99690.94;6320771;28;20048;-78
2021/11/30 07:29:18;;;;;;;2.75;1.52;;;;;;;3.46;100.00;99684.06;6322907;28;20055;-82
2021/11/30 07:32:19;;;;;;;3.15;2.10;;;;;;;3.55;100.00;99678.47;6323678;28;20071;-80
2021/11/30 07:35:23;;;;;;;1.67;1.48;;;;;;;3.53;100.00;99688.06;6323860;28;20048;-81
2021/11/30 07:38:24;;;;;;;4.43;1.30;;;;;;;3.60;100.00;99688.66;6323872;28;20076;-81
2021/11/30 07:41:27;;;;;;;2.53;1.80;;;;;;;3.66;100.00;99677.16;6323819;28;20052;-82
2021/11/30 07:44:28;;;;;;;2.42;1.42;;;;;;;3.67;100.00;99684.06;6324139;28;20048;-79
2021/11/30 07:47:30;;;;;;;5.05;1.95;;;;;;;3.72;100.00;99671.72;6323720;28;20055;-81
2021/11/30 07:50:31;;;;;;;3.75;1.77;;;;;;;3.79;100.00;99667.94;6323058;28;20433;-80
2021/11/30 07:53:34;;;;;;;2.88;1.60;;;;;;;3.85;100.00;99666.84;6325768;28;20048;-81
2021/11/30 07:56:36;;;;;;;2.38;1.70;;;;;;;3.92;100.00;99661.31;6303503;28;20045;-79
2021/11/30 07:59:38;;;;;;;3.70;2.33;;;;;;;3.98;100.00;99668.84;6301795;28;20048;-83
2021/11/30 08:02:39;;;;;;;4.68;1.98;;;;;;;4.04;100.00;99671.19;6300495;28;20049;-82
2021/11/30 08:05:41;;;;;;;2.38;1.95;;;;;;;4.09;100.00;99673.59;6300518;28;20048;-79
2021/11/30 08:08:42;;;;;;;3.35;2.13;;;;;;;4.16;100.00;99658.53;6300735;28;20052;-80
2021/11/30 08:11:45;;;;;;;3.85;2.45;;;;;;;4.21;100.00;99673.03;6301218;28;20060;-81
2021/11/30 08:14:46;;;;;;;2.55;1.92;;;;;;;4.32;100.00;99677.75;6301541;28;20055;-81
2021/11/30 08:17:48;;;;;;;3.47;2.00;;;;;;;4.40;100.00;99678.25;6301711;28;20053;-80
2021/11/30 08:20:49;;;;;;;3.22;2.45;;;;;;;4.45;100.00;99681.50;6301576;28;20048;-82
2021/11/30 08:23:51;;;;;;;5.45;2.55;;;;;;;4.51;100.00;99673.41;6308083;28;20059;-80
2021/11/30 08:26:54;;;;;;;3.72;2.50;;;;;;;4.56;100.00;99665.38;6325310;28;20052;-80
2021/11/30 08:29:55;;;;;;;5.00;2.85;;;;;;;4.54;100.00;99670.69;6326305;28;20059;-80
2021/11/30 08:32:56;;;;;;;3.50;2.40;;;;;;;4.66;100.00;99666.66;6325729;28;20043;-79
2021/11/30 08:35:58;;;;;;;6.00;2.70;;;;;;;4.62;100.00;99672.91;6324013;28;20059;-80
2021/11/30 08:39:00;;;;;;;4.43;2.30;;;;;;;4.70;100.00;99673.41;6323083;28;20051;-78
2021/11/30 08:42:05;;;;;;;3.10;2.20;;;;;;;4.75;100.00;99665.38;6323624;28;20040;-80
2021/11/30 08:45:09;;;;;;;4.18;2.28;;;;;;;4.80;100.00;99668.59;6323893;28;20074;-78
2021/11/30 08:48:11;;;;;;;4.47;3.05;;;;;;;4.88;100.00;99652.63;6323556;28;20044;-80
2021/11/30 08:51:12;;;;;;;3.15;2.13;;;;;;;4.95;100.00;99641.88;6324888;28;20071;-81
2021/11/30 08:54:14;;;;;;;3.92;2.22;;;;;;;4.98;100.00;99648.66;6325855;28;20513;-79
2021/11/30 08:57:16;;;;;;;3.28;2.03;;;;;;;5.04;100.00;99645.75;6326067;28;20055;-79
2021/11/30 09:00:21;;;;;;;3.03;2.30;;;;;;;5.05;100.00;99668.31;6324136;28;20570;-81
2021/11/30 09:03:23;;;;;;;4.03;2.03;;;;;;;5.15;100.00;99658.28;6325730;28;20055;-81
2021/11/30 09:06:25;;;;;;;4.45;2.95;;;;;;;5.16;100.00;99644.34;6324451;28;20173;-81
2021/11/30 09:09:27;;;;;;;4.50;3.03;;;;;;;5.19;100.00;99646.78;6326094;28;20048;-81
2021/11/30 09:12:29;;;;;;;5.25;3.40;;;;;;;5.32;100.00;99655.69;6326400;28;20052;-79
2021/11/30 09:15:31;;;;;;;10.63;2.85;;;;;;;5.36;100.00;99662.44;6324410;28;20044;-79
2021/11/30 09:18:32;;;;;;;3.58;2.30;;;;;;;5.39;100.00;99669.25;6323945;28;20055;-80
2021/11/30 09:21:34;;;;;;;3.75;2.53;;;;;;;5.34;100.00;99667.72;6325150;28;20051;-82
2021/11/30 09:24:35;;;;;;;4.13;2.40;;;;;;;5.47;100.00;99667.97;6329581;28;20051;-80
2021/11/30 09:27:39;;;;;;;4.65;2.70;;;;;;;5.56;100.00;99670.09;6324728;28;20055;-80
2021/11/30 09:30:41;;;;;;;2.83;1.85;;;;;;;5.60;100.00;99668.19;6325442;28;20048;-83
2021/11/30 09:33:43;;;;;;;4.25;2.35;;;;;;;5.64;100.00;99669.72;6320953;28;20070;-79
2021/11/30 09:36:47;;;;;;;6.88;1.80;;;;;;;5.70;100.00;99665.97;6301384;28;20049;-79
2021/11/30 09:39:48;;;;;;;5.65;2.50;;;;;;;5.78;100.00;99669.88;6301516;28;20454;-79
2021/11/30 09:42:51;;;;;;;7.40;2.20;;;;;;;5.79;100.00;99665.50;6302224;28;20049;-81
2021/11/30 09:45:56;;;;;;;4.30;2.08;;;;;;;5.87;100.00;99671.16;6301957;28;20055;-80
2021/11/30 09:48:57;;;;;;;2.67;1.05;;;;;;;5.93;100.00;99657.00;6300886;28;20059;-80
2021/11/30 09:51:59;;;;;;;1.30;1.15;;;;;;;5.95;100.00;99674.25;6308203;28;20051;-81
2021/11/30 09:55:00;;;;;;;2.15;1.48;;;;;;;6.03;100.00;99669.47;6312590;28;20052;-80
2021/11/30 09:58:04;;;;;;;3.13;0.95;;;;;;;6.09;100.00;99660.50;6321785;28;20738;-80
2021/11/30 10:01:10;;;;;;;1.50;1.20;;;;;;;6.09;100.00;99669.16;6311757;28;20044;-80
2021/11/30 10:04:11;;;;;;;1.27;1.05;;;;;;;6.18;100.00;99662.63;6315064;28;20048;-79
2021/11/30 10:07:12;;;;;;;3.55;1.42;;;;;;;6.22;100.00;99660.69;6309652;28;20055;-79
2021/11/30 10:10:16;;;;;;;0.47;0.47;;;;;;;6.31;100.00;99654.97;6302155;28;20047;-80
2021/11/30 10:13:18;;;;;;;1.25;0.50;;;;;;;6.31;100.00;99645.41;6299064;28;20515;-81
2021/11/30 10:16:20;;;;;;;4.95;1.30;;;;;;;6.37;100.00;99659.88;6299427;28;20055;-80
2021/11/30 10:19:28;;;;;;;8.32;0.82;;;;;;;6.38;100.00;99647.66;6299945;28;20049;-80
2021/11/30 10:22:46;;;;;;;1.83;0.55;;;;;;;6.45;100.00;99652.50;6299873;28;20048;-79
2021/11/30 10:25:48;;;;;;;3.58;0.47;;;;;;;6.50;100.00;99660.06;6299013;28;20053;-79
2021/11/30 10:28:56;;;;;;;1.05;0.57;;;;;;;6.46;100.00;99646.34;6298561;28;20557;-80
2021/11/30 10:31:58;;;;;;;0.30;0.28;;;;;;;6.57;100.00;99653.56;6298000;28;20055;-81
2021/11/30 10:35:01;;;;;;;2.28;0.38;;;;;;;6.61;100.00;99655.94;6297969;28;20423;-81
2021/11/30 10:38:05;;;;;;;1.75;1.10;;;;;;;6.67;100.00;99659.13;6298459;28;20080;-81
2021/11/30 10:41:13;;;;;;;0.82;0.30;;;;;;;6.66;100.00;99653.06;6298110;28;20443;-80
2021/11/30 10:44:15;;;;;;;2.83;0.43;;;;;;;6.64;100.00;99659.31;6297364;28;20048;-80
2021/11/30 10:47:20;;;;;;;1.85;0.57;;;;;;;6.61;100.00;99658.53;6298000;28;20051;-81
2021/11/30 10:50:25;;;;;;;1.10;0.38;;;;;;;6.61;100.00;99668.16;6297722;28;20063;-80
2021/11/30 10:53:28;;;;;;;6.20;0.65;;;;;;;6.67;100.00;99683.47;6298560;28;20056;-79
2021/11/30 10:56:30;;;;;;;0.88;0.35;;;;;;;6.70;100.00;99682.47;6298056;28;20056;-79
2021/11/30 10:59:32;;;;;;;7.35;0.65;;;;;;;6.67;100.00;99690.47;6321758;28;20063;-78
2021/11/30 11:02:48;;;;;;;3.25;0.63;;;;;;;6.73;100.00;99680.53;6323115;28;20396;-81
2021/11/30 11:06:24;;;;;;;5.25;0.43;;;;;;;6.73;100.00;99683.16;6322052;28;20052;-78
2021/11/30 11:09:18;;;;;;;4.43;0.60;;;;;;;6.81;100.00;99670.53;6321935;28;20166;-78
2021/11/30 11:12:25;;;;;;;3.17;0.65;;;;;;;6.77;100.00;99674.22;6322030;28;20054;-78
2021/11/30 11:15:38;;;;;;;0.68;0.50;;;;;;;6.77;100.00;99676.84;6322868;28;20054;-78
2021/11/30 11:18:41;;;;;;;1.95;0.85;;;;;;;6.74;100.00;99691.81;6322650;28;20055;-79
2021/11/30 11:21:42;;;;;;;10.63;0.82;;;;;;;6.76;100.00;99703.84;6322163;28;20109;-78
2021/11/30 11:24:47;;;;;;;5.00;1.67;;;;;;;6.74;100.00;99695.28;6322633;28;20562;-79
2021/11/30 11:27:48;;;;;;;5.32;1.05;;;;;;;6.64;100.00;99694.09;6323428;28;20052;-80
2021/11/30 11:30:52;;;;;;;3.65;0.82;;;;;;;6.56;100.00;99693.66;6327559;28;20083;-79
2021/11/30 11:33:55;;;;;;;4.63;1.08;;;;;;;6.62;100.00;99714.19;6327303;28;20044;-81
2021/11/30 11:36:59;;;;;;;3.60;0.73;;;;;;;6.61;100.00;99707.31;6326841;28;20048;-79
2021/11/30 11:40:00;;;;;;;6.68;1.88;;;;;;;6.65;100.00;99711.44;6327081;28;20044;-78
2021/11/30 11:43:02;;;;;;;5.43;2.03;;;;;;;6.72;100.00;99720.63;6327573;28;20491;-79
2021/11/30 11:46:08;;;;;;;2.05;0.40;;;;;;;6.76;100.00;99713.47;6327589;28;20138;-78
2021/11/30 11:49:12;;;;;;;2.53;0.43;;;;;;;6.73;100.00;99721.47;6327594;28;20518;-80
2021/11/30 11:52:24;;;;;;;1.75;0.80;;;;;;;6.73;100.00;99724.94;6327716;28;20044;-79
2021/11/30 11:55:27;;;;;;;2.90;0.50;;;;;;;6.73;100.00;99714.47;6326312;28;20048;-79
2021/11/30 11:58:29;;;;;;;2.55;0.63;;;;;;;6.78;100.00;99728.13;6325900;28;20048;-78
2021/11/30 12:01:32;;;;;;;0.35;0.35;;;;;;;6.78;100.00;99738.56;6325875;28;20075;-79
2021/11/30 12:04:40;;;;;;;1.13;0.50;;;;;;;6.84;100.00;99742.63;6325671;28;20048;-78
2021/11/30 12:07:57;;;;;;;1.60;0.43;;;;;;;6.84;100.00;99743.47;6325858;28;20059;-78
2021/11/30 12:11:01;;;;;;;1.33;0.43;;;;;;;6.83;100.00;99735.72;6326778;28;20044;-79
2021/11/30 12:14:09;;;;;;;7.63;0.85;;;;;;;6.76;100.00;99737.78;6326685;28;20063;-78
2021/11/30 12:17:15;;;;;;;0.10;0.10;;;;;;;6.77;100.00;99742.13;6326536;28;20056;-78
2021/11/30 12:20:17;;;;;;;0.60;0.50;;;;;;;6.78;100.00;99738.56;6326457;28;20131;-78
2021/11/30 12:23:32;;;;;;;2.53;0.63;;;;;;;6.70;100.00;99745.13;6326947;28;20062;-79
2021/11/30 12:26:37;;;;;;;2.22;0.65;;;;;;;6.67;100.00;99745.28;6325672;28;20059;-81
2021/11/30 12:29:39;;;;;;;0.20;0.20;;;;;;;6.61;100.00;99755.13;6301363;28;20507;-78
2021/11/30 12:32:41;;;;;;;4.03;0.75;;;;;;;6.43;100.00;99747.44;6301106;28;20048;-79
2021/11/30 12:35:48;;;;;;;0.95;0.40;;;;;;;6.16;100.00;99744.47;6298641;28;20071;-79
2021/11/30 12:38:56;;;;;;;2.28;0.40;;;;;;;5.98;100.00;99733.22;6298707;28;20051;-79
2021/11/30 12:41:59;;;;;;;6.88;0.80;;;;;;;5.96;100.00;99735.91;6298213;28;20127;-78
2021/11/30 12:45:02;;;;;;;3.53;1.33;;;;;;;5.92;100.00;99741.38;6299141;28;20063;-78
2021/11/30 12:48:14;;;;;;;1.85;0.45;;;;;;;6.01;100.00;99739.13;6299470;28;20056;-78
2021/11/30 12:51:29;;;;;;;0.40;0.28;;;;;;;6.13;100.00;99753.28;6300743;28;20040;-78
2021/11/30 12:54:30;;;;;;;0.10;0.10;;;;;;;6.28;100.00;99754.28;6300818;28;20057;-79
2021/11/30 12:57:43;;;;;;;3.63;0.80;;;;;;;6.45;100.00;99779.50;6313576;28;20051;-77
2021/11/30 13:00:45;;;;;;;4.82;0.77;;;;;;;6.46;100.00;99762.94;6325197;28;20056;-80
2021/11/30 13:03:49;;;;;;;0.75;0.10;;;;;;;6.41;100.00;99755.34;6325998;28;20117;-79
2021/11/30 13:07:04;;;;;;;0.32;0.30;;;;;;;6.34;100.00;99760.03;6325819;28;20509;-80
2021/11/30 13:10:07;;;;;;;0.77;0.50;;;;;;;6.34;100.00;99767.00;6324007;28;20055;-77
2021/11/30 13:13:18;;;;;;;1.70;0.63;;;;;;;6.34;100.00;99765.25;6324817;28;20508;-79
2021/11/30 13:16:19;;;;;;;3.92;0.75;;;;;;;6.36;100.00;99762.56;6324606;28;20059;-79
2021/11/30 13:19:22;;;;;;;2.42;0.73;;;;;;;6.33;100.00;99781.84;6324774;28;20056;-79
2021/11/30 13:22:24;;;;;;;4.25;0.57;;;;;;;6.34;100.00;99775.69;6324739;28;20044;-79
2021/11/30 13:25:28;;;;;;;2.38;0.50;;;;;;;6.34;100.00;99772.22;6325308;28;20044;-79
2021/11/30 13:28:31;;;;;;;2.70;0.52;;;;;;;6.38;100.00;99783.38;6307362;28;20045;-79
2021/11/30 13:31:33;;;;;;;7.78;0.77;;;;;;;6.37;100.00;99789.50;6300555;28;20178;-80
2021/11/30 13:34:36;;;;;;;3.67;1.38;;;;;;;6.38;100.00;99794.63;6301039;28;20045;-79
2021/11/30 13:37:39;;;;;;;5.00;1.00;;;;;;;6.43;100.00;99789.19;6300095;28;20048;-78
2021/11/30 13:40:43;;;;;;;4.47;0.45;;;;;;;6.42;100.00;99790.13;6300387;28;20056;-78
2021/11/30 13:43:47;;;;;;;2.92;0.32;;;;;;;6.38;100.00;99788.59;6299673;28;20055;-78
2021/11/30 13:46:48;;;;;;;3.15;0.50;;;;;;;6.41;100.00;99797.09;6299202;28;20491;-77
2021/11/30 13:49:51;;;;;;;0.13;0.13;;;;;;;6.44;100.00;99796.09;6298718;28;20486;-77
2021/11/30 13:53:06;;;;;;;0.82;0.40;;;;;;;6.39;100.00;99825.03;6298160;28;20048;-77
2021/11/30 13:56:14;;;;;;;1.38;0.52;;;;;;;6.37;100.00;99832.09;6298919;28;20048;-79
2021/11/30 13:59:17;;;;;;;0.55;0.47;;;;;;;6.35;100.00;99819.13;6299988;28;20052;-78
2021/11/30 14:02:19;;;;;;;0.55;0.40;;;;;;;6.32;100.00;99826.28;6298510;28;20129;-78
2021/11/30 14:05:21;;;;;;;10.65;1.85;;;;;;;6.27;100.00;99839.56;6326045;28;20043;-77
2021/11/30 14:08:23;;;;;;;5.25;0.82;;;;;;;6.28;100.00;99845.59;6315866;28;20048;-78
2021/11/30 14:11:28;;;;;;;1.88;0.50;;;;;;;6.25;100.00;99833.56;6331192;28;20055;-77
2021/11/30 14:14:29;;;;;;;2.38;0.70;;;;;;;6.05;100.00;99860.63;6323543;28;20055;-78
2021/11/30 14:17:33;;;;;;;0.52;0.30;;;;;;;5.73;100.00;99877.81;6323242;28;20044;-78
2021/11/30 14:20:38;;;;;;;3.95;0.68;;;;;;;5.41;100.00;99876.69;6323687;28;20529;-80
2021/11/30 14:23:40;;;;;;;0.85;0.13;;;;;;;5.12;100.00;99888.41;6323712;28;20105;-79